Time;durP1;ratioP1;P1;durP2;ratioP2;P2;SDS_P1;SDS_P2;PMS_P1;PMS_P2;Temp;Humidity;BMP_temperature;BMP_pressure;BME280_temperature;BME280_humidity;BME280_pressure;Samples;Min_cycle;Max_cycle;Signal;HPM_P1;HPM_P2
2022/07/20 00:02:08;;;;;;;7.75;3.52;;;;;;;17.24;75.14;99830.48;1705534;84;20990;-44
2022/07/20 00:04:35;;;;;;;8.20;3.42;;;;;;;17.23;75.33;99830.31;1705737;83;22134;-43
2022/07/20 00:07:04;;;;;;;3.35;3.05;;;;;;;17.21;75.60;99826.58;1705458;83;21527;-44
2022/07/20 00:12:16;;;;;;;30.48;3.25;;;;;;;17.21;75.75;99827.17;1705650;84;20926;-44
2022/07/20 00:14:43;;;;;;;21.70;3.80;;;;;;;17.15;75.65;99815.03;1705684;83;21021;-44
2022/07/20 00:17:11;;;;;;;24.70;3.20;;;;;;;17.11;75.67;99817.78;1705722;84;21556;-44
2022/07/20 00:19:38;;;;;;;20.02;3.15;;;;;;;17.10;75.81;99818.16;1705543;84;21014;-44
2022/07/20 00:22:05;;;;;;;13.58;2.95;;;;;;;17.09;75.83;99816.63;1716349;83;21047;-44
2022/07/20 00:24:32;;;;;;;9.18;2.50;;;;;;;17.06;75.77;99813.27;1719289;83;21021;-44
2022/07/20 00:26:59;;;;;;;15.63;2.30;;;;;;;17.03;75.54;99816.80;1719304;83;21625;-44
2022/07/20 00:29:26;;;;;;;5.50;2.52;;;;;;;17.01;75.30;99815.81;1718980;83;21217;-43
2022/07/20 00:31:53;;;;;;;13.90;2.15;;;;;;;16.98;75.31;99813.09;1719148;83;21024;-43
2022/07/20 00:35:10;;;;;;;7.37;2.10;;;;;;;17.00;75.35;99816.98;1783397;79;22736;-44
2022/07/20 00:37:37;;;;;;;9.70;2.00;;;;;;;16.87;75.29;99819.34;1755611;81;20931;-44
2022/07/20 00:40:06;;;;;;;4.92;2.30;;;;;;;16.79;75.44;99814.25;1755664;81;21895;-43
2022/07/20 00:42:34;;;;;;;8.00;2.10;;;;;;;16.75;75.41;99816.97;1756012;81;20900;-44
2022/07/20 00:45:02;;;;;;;8.58;2.05;;;;;;;16.74;75.37;99817.37;1755632;81;20974;-44
2022/07/20 00:47:30;;;;;;;5.67;2.20;;;;;;;16.70;75.26;99817.34;1755769;81;21033;-43
2022/07/20 00:49:57;;;;;;;8.90;2.22;;;;;;;16.67;75.16;99812.66;1755701;81;20962;-43
2022/07/20 00:52:24;;;;;;;10.03;2.62;;;;;;;16.66;74.96;99809.72;1755335;81;23157;-44
2022/07/20 00:54:53;;;;;;;24.02;2.42;;;;;;;16.64;75.04;99810.72;1755604;81;21587;-43
2022/07/20 00:57:21;;;;;;;16.97;2.05;;;;;;;16.64;75.00;99805.23;1755590;81;20903;-44
2022/07/20 00:59:48;;;;;;;19.98;2.50;;;;;;;16.61;74.90;99803.26;1755419;81;21442;-44
2022/07/20 01:02:14;;;;;;;21.02;3.00;;;;;;;16.55;74.88;99803.44;1755516;81;21006;-44
2022/07/20 01:04:42;;;;;;;12.40;2.58;;;;;;;16.49;74.97;99804.40;1755388;81;23148;-44
2022/07/20 01:07:09;;;;;;;8.70;2.50;;;;;;;16.45;75.04;99801.46;1755404;81;21018;-44
2022/07/20 01:09:37;;;;;;;15.23;2.00;;;;;;;16.45;75.13;99802.83;1755531;81;21544;-43
2022/07/20 01:12:06;;;;;;;11.88;2.30;;;;;;;16.45;75.04;99797.36;1755423;81;21050;-43
2022/07/20 01:14:33;;;;;;;16.62;2.10;;;;;;;16.44;75.22;99799.89;1755520;81;20979;-44
2022/07/20 01:17:00;;;;;;;5.03;2.58;;;;;;;16.41;75.11;99800.67;1755512;81;21283;-43
2022/07/20 01:19:27;;;;;;;8.00;2.22;;;;;;;16.40;75.27;99803.20;1755365;81;20978;-44
2022/07/20 01:21:54;;;;;;;7.15;2.52;;;;;;;16.42;75.39;99798.90;1755555;81;20991;-44
2022/07/20 01:24:21;;;;;;;2.52;2.33;;;;;;;16.45;75.31;99793.25;1755458;81;20990;-43
2022/07/20 01:26:48;;;;;;;2.20;2.00;;;;;;;16.47;75.00;99797.16;1755435;81;21553;-44
2022/07/20 01:29:15;;;;;;;2.37;1.90;;;;;;;16.46;74.90;99792.05;1755514;81;21220;-43
2022/07/20 01:31:43;;;;;;;1.47;1.37;;;;;;;16.48;74.86;99796.56;1755484;81;20931;-44
2022/07/20 01:34:10;;;;;;;1.60;1.50;;;;;;;16.49;74.83;99796.19;1752805;81;21030;-43
2022/07/20 01:36:37;;;;;;;1.40;1.30;;;;;;;16.50;74.60;99795.02;1750319;82;21532;-44
2022/07/20 01:39:04;;;;;;;1.60;1.50;;;;;;;16.49;74.48;99796.77;1750325;82;21038;-43
2022/07/20 01:41:33;;;;;;;1.50;1.40;;;;;;;16.47;74.45;99798.52;1750370;82;21556;-43
2022/07/20 01:44:00;;;;;;;1.60;1.50;;;;;;;16.48;74.37;99799.30;1750425;82;20908;-44
2022/07/20 01:46:27;;;;;;;1.98;1.57;;;;;;;16.49;74.28;99799.52;1749781;82;21026;-43
2022/07/20 01:48:55;;;;;;;2.50;1.50;;;;;;;16.49;74.01;99794.82;1749915;82;20959;-43
2022/07/20 01:51:22;;;;;;;3.58;1.70;;;;;;;16.48;73.85;99792.46;1749933;82;20999;-44
2022/07/20 01:53:49;;;;;;;1.75;1.65;;;;;;;16.44;73.89;99789.73;1750058;82;21584;-43
2022/07/20 01:56:16;;;;;;;2.75;1.50;;;;;;;16.43;73.96;99792.84;1749845;82;21011;-43
2022/07/20 01:58:43;;;;;;;2.65;1.60;;;;;;;16.42;73.90;99789.91;1749936;82;21014;-43
2022/07/20 02:01:10;;;;;;;2.70;1.70;;;;;;;16.41;73.79;99790.48;1744838;82;21035;-44
2022/07/20 02:03:38;;;;;;;1.80;1.60;;;;;;;16.41;73.70;99789.73;1749955;82;21038;-43
2022/07/20 02:06:06;;;;;;;4.58;2.00;;;;;;;16.38;73.58;99789.12;1749938;82;21888;-43
2022/07/20 02:08:37;;;;;;;1.90;1.77;;;;;;;16.36;73.47;99791.48;1750092;82;21508;-44
2022/07/20 02:11:04;;;;;;;3.72;2.12;;;;;;;16.35;73.39;99793.42;1750075;82;20940;-44
2022/07/20 02:13:34;;;;;;;2.12;1.92;;;;;;;16.35;73.36;99796.16;1749996;82;21038;-44
2022/07/20 02:16:15;;;;;;;4.58;2.20;;;;;;;16.33;73.58;99785.39;1749908;82;21011;-43
2022/07/20 02:18:55;;;;;;;2.40;2.20;;;;;;;16.32;73.66;99792.81;1749934;82;21153;-44
2022/07/20 02:21:22;;;;;;;2.65;2.10;;;;;;;16.31;73.80;99798.69;1749601;82;21339;-43
2022/07/20 02:23:50;;;;;;;2.35;2.12;;;;;;;16.28;73.82;99792.02;1749815;82;21111;-43
2022/07/20 02:26:17;;;;;;;2.20;2.00;;;;;;;16.29;73.85;99802.39;1749692;82;21497;-44
2022/07/20 02:28:44;;;;;;;3.08;2.20;;;;;;;16.27;73.65;99804.13;1750010;82;21042;-44
2022/07/20 02:31:11;;;;;;;4.53;2.00;;;;;;;16.26;73.56;99803.17;1749759;82;21147;-44
2022/07/20 02:33:39;;;;;;;4.95;2.12;;;;;;;16.23;73.68;99798.45;1749797;82;20973;-43
2022/07/20 02:36:07;;;;;;;5.87;2.42;;;;;;;16.23;73.61;99803.92;1749815;82;21026;-44
2022/07/20 02:38:34;;;;;;;3.30;2.55;;;;;;;16.21;73.57;99798.08;1749946;82;21097;-44
2022/07/20 02:41:03;;;;;;;2.98;2.45;;;;;;;16.20;73.83;99803.34;1749670;82;21051;-44
2022/07/20 02:43:30;;;;;;;3.60;2.42;;;;;;;16.20;74.01;99801.39;1749891;82;21536;-44
2022/07/20 02:45:57;;;;;;;2.45;2.25;;;;;;;16.22;74.11;99804.50;1749855;82;21030;-44
2022/07/20 02:48:24;;;;;;;2.60;2.40;;;;;;;16.23;74.06;99812.13;1749720;82;20994;-44
2022/07/20 02:50:52;;;;;;;2.22;2.02;;;;;;;16.15;74.18;99816.02;1749811;82;21029;-44
2022/07/20 02:53:19;;;;;;;2.40;2.05;;;;;;;16.08;74.53;99811.30;1749777;82;21060;-44
2022/07/20 02:55:46;;;;;;;2.55;2.05;;;;;;;16.05;74.73;99814.23;1749791;82;23156;-44
2022/07/20 02:58:13;;;;;;;2.33;2.12;;;;;;;16.04;74.75;99811.29;1749750;82;21031;-44
2022/07/20 03:00:41;;;;;;;6.10;2.60;;;;;;;16.05;74.75;99806.03;1749897;82;21006;-44
2022/07/20 03:03:08;;;;;;;2.30;2.10;;;;;;;16.04;74.97;99811.29;1749699;82;21489;-44
2022/07/20 03:05:35;;;;;;;2.58;2.10;;;;;;;16.03;75.13;99811.09;1749915;82;21045;-43
2022/07/20 03:08:05;;;;;;;2.45;2.25;;;;;;;16.01;75.31;99816.17;1749816;82;21239;-43
2022/07/20 03:10:33;;;;;;;3.42;2.37;;;;;;;16.00;75.43;99811.87;1749964;82;20947;-43
2022/07/20 03:13:01;;;;;;;2.30;1.90;;;;;;;15.98;75.48;99814.77;1749838;82;20923;-44
2022/07/20 03:15:28;;;;;;;2.77;1.90;;;;;;;15.97;75.67;99805.02;1749660;82;21075;-43
2022/07/20 03:17:55;;;;;;;2.52;2.30;;;;;;;15.97;75.83;99811.86;1749778;82;21026;-43
2022/07/20 03:20:31;;;;;;;2.33;2.12;;;;;;;15.99;75.92;99812.24;1749770;82;21244;-44
2022/07/20 03:22:59;;;;;;;2.60;2.40;;;;;;;15.99;76.00;99812.24;1750062;82;21509;-43
2022/07/20 03:25:26;;;;;;;3.98;2.55;;;;;;;16.01;76.22;99814.02;1749743;82;20978;-43
2022/07/20 03:27:57;;;;;;;2.72;2.35;;;;;;;16.07;76.22;99818.72;1749831;82;21019;-43
2022/07/20 03:30:24;;;;;;;2.92;2.62;;;;;;;16.12;76.28;99823.64;1749790;82;21054;-43
2022/07/20 03:32:52;;;;;;;3.33;2.65;;;;;;;16.19;76.25;99825.02;1749919;82;22032;-43
2022/07/20 03:35:20;;;;;;;3.37;3.03;;;;;;;16.23;76.19;99818.39;1749669;82;21014;-43
2022/07/20 03:37:48;;;;;;;3.45;2.80;;;;;;;16.28;76.25;99817.23;1749900;82;21517;-44
2022/07/20 03:40:15;;;;;;;4.70;2.92;;;;;;;16.34;76.35;99815.69;1749722;82;21118;-43
2022/07/20 03:42:42;;;;;;;3.45;3.00;;;;;;;16.39;76.27;99810.63;1749943;82;21513;-43
2022/07/20 03:45:10;;;;;;;4.72;2.80;;;;;;;16.44;76.25;99808.09;1749718;82;21149;-43
2022/07/20 03:47:37;;;;;;;3.35;2.87;;;;;;;16.47;76.37;99799.89;1749835;82;21086;-43
2022/07/20 03:50:06;;;;;;;2.92;2.62;;;;;;;16.56;76.34;99806.34;1749644;82;21482;-43
2022/07/20 03:52:33;;;;;;;2.98;2.70;;;;;;;16.60;76.28;99797.61;1749788;82;21078;-43
2022/07/20 03:55:00;;;;;;;5.22;3.20;;;;;;;16.69;76.27;99799.97;1749873;82;20991;-43
2022/07/20 03:57:28;;;;;;;4.30;3.08;;;;;;;16.74;76.24;99788.05;1749845;82;21290;-43
2022/07/20 03:59:55;;;;;;;6.30;3.27;;;;;;;16.83;76.16;99791.17;1749777;82;20963;-44
2022/07/20 04:02:22;;;;;;;3.40;3.10;;;;;;;16.89;76.05;99785.48;1749805;82;20994;-43
2022/07/20 04:04:49;;;;;;;2.95;2.72;;;;;;;16.91;76.12;99789.21;1749694;82;21336;-44
2022/07/20 04:07:16;;;;;;;4.37;2.98;;;;;;;16.95;76.13;99794.09;1749787;82;21008;-43
2022/07/20 04:09:46;;;;;;;4.28;3.37;;;;;;;17.00;76.19;99794.29;1749890;82;20947;-43
2022/07/20 04:12:17;;;;;;;3.50;2.92;;;;;;;17.04;76.29;99793.11;1749610;82;21022;-43
2022/07/20 04:14:45;;;;;;;3.33;2.92;;;;;;;17.08;76.49;99789.80;1749723;81;21098;-43
2022/07/20 04:17:12;;;;;;;5.15;3.10;;;;;;;17.11;76.72;99781.38;1749899;82;20990;-43
2022/07/20 04:19:39;;;;;;;4.10;3.30;;;;;;;17.17;76.93;99784.71;1749884;82;21536;-43
2022/07/20 04:22:06;;;;;;;3.95;3.15;;;;;;;17.22;77.03;99780.20;1749901;82;21238;-43
2022/07/20 04:24:34;;;;;;;4.12;3.10;;;;;;;17.25;77.28;99779.41;1749731;82;21014;-43
2022/07/20 04:27:01;;;;;;;4.08;2.87;;;;;;;17.30;77.63;99782.33;1749700;82;20979;-43
2022/07/20 04:29:29;;;;;;;3.77;3.00;;;;;;;17.35;77.97;99775.87;1749571;82;21573;-43
2022/07/20 04:31:57;;;;;;;5.03;3.30;;;;;;;17.42;78.12;99766.86;1749806;82;21043;-43
2022/07/20 04:34:23;;;;;;;4.30;3.17;;;;;;;17.50;77.86;99767.02;1748004;82;21093;-44
2022/07/20 04:36:51;;;;;;;4.72;3.00;;;;;;;17.58;77.79;99765.81;1741774;82;20999;-43
2022/07/20 04:39:19;;;;;;;4.58;3.30;;;;;;;17.64;77.94;99762.89;1741661;82;21047;-43
2022/07/20 04:41:46;;;;;;;4.12;3.47;;;;;;;17.73;77.81;99767.37;1741984;82;21840;-43
2022/07/20 04:44:13;;;;;;;5.22;3.45;;;;;;;17.83;77.67;99769.09;1741800;82;21015;-43
2022/07/20 04:46:40;;;;;;;7.65;3.72;;;;;;;17.88;77.43;99758.49;1741918;82;21100;-43
2022/07/20 04:49:09;;;;;;;4.05;3.55;;;;;;;17.96;77.57;99763.38;1741465;82;20980;-44
2022/07/20 04:51:37;;;;;;;5.85;3.40;;;;;;;18.01;77.58;99758.23;1741816;82;21043;-43
2022/07/20 04:54:04;;;;;;;4.28;3.50;;;;;;;18.09;77.67;99751.55;1741680;82;21012;-43
2022/07/20 04:56:32;;;;;;;4.53;3.25;;;;;;;18.16;77.38;99747.96;1741766;82;21022;-43
2022/07/20 04:58:59;;;;;;;3.58;3.08;;;;;;;18.23;77.31;99753.42;1741714;82;23127;-44
2022/07/20 05:01:26;;;;;;;5.10;3.17;;;;;;;18.31;77.29;99749.44;1741728;82;21038;-43
2022/07/20 05:03:53;;;;;;;4.42;3.47;;;;;;;18.39;76.88;99750.20;1742001;82;20987;-43
2022/07/20 05:06:21;;;;;;;7.60;3.62;;;;;;;18.45;76.48;99742.48;1741663;82;21033;-43
2022/07/20 05:08:48;;;;;;;5.00;3.40;;;;;;;18.53;76.14;99750.09;1741924;82;21035;-43
2022/07/20 05:11:15;;;;;;;4.17;3.10;;;;;;;18.58;75.61;99740.88;1741946;82;21522;-43
2022/07/20 05:13:42;;;;;;;4.28;3.02;;;;;;;18.66;75.60;99740.22;1741692;82;21015;-43
2022/07/20 05:16:10;;;;;;;4.85;3.05;;;;;;;18.74;75.05;99738.96;1741743;82;20990;-43
2022/07/20 05:18:37;;;;;;;4.70;3.35;;;;;;;18.83;75.17;99734.40;1741843;82;21061;-44
2022/07/20 05:21:05;;;;;;;3.95;2.90;;;;;;;18.92;74.72;99734.70;1742090;82;21079;-44
2022/07/20 05:23:32;;;;;;;4.22;3.55;;;;;;;18.98;73.76;99727.56;1741777;82;23197;-43
2022/07/20 05:25:59;;;;;;;5.35;3.40;;;;;;;19.03;73.34;99723.79;1741963;82;21075;-44
2022/07/20 05:28:27;;;;;;;5.05;2.87;;;;;;;19.11;73.31;99713.52;1741994;82;20944;-43
2022/07/20 05:30:54;;;;;;;4.00;3.10;;;;;;;19.20;73.16;99719.31;1742087;82;20964;-44
2022/07/20 05:33:21;;;;;;;4.78;3.25;;;;;;;19.28;72.79;99721.38;1741830;82;21102;-44
2022/07/20 05:35:53;;;;;;;3.45;3.15;;;;;;;19.36;72.69;99711.30;1747159;82;21320;-44
2022/07/20 05:38:18;;;;;;;4.23;3.20;;;;;;;19.45;72.02;99713.58;1713580;83;20950;-43
2022/07/20 05:40:46;;;;;;;4.33;3.40;;;;;;;19.50;71.39;99707.62;1749819;81;21042;-43
2022/07/20 05:43:13;;;;;;;5.40;3.27;;;;;;;19.57;71.15;99706.16;1749801;82;21090;-44
2022/07/20 05:45:40;;;;;;;4.30;3.40;;;;;;;19.64;71.28;99701.17;1750062;82;21063;-44
2022/07/20 05:48:10;;;;;;;3.70;3.30;;;;;;;19.73;70.85;99697.32;1749918;82;22144;-44
2022/07/20 05:50:37;;;;;;;4.65;3.20;;;;;;;19.81;70.89;99696.03;1750266;82;20951;-44
2022/07/20 05:53:04;;;;;;;3.92;3.45;;;;;;;19.88;70.90;99684.94;1749871;82;21039;-43
2022/07/20 05:55:33;;;;;;;4.80;3.60;;;;;;;19.97;70.29;99687.95;1749834;82;21121;-44
2022/07/20 05:58:01;;;;;;;5.15;3.70;;;;;;;20.05;69.38;99683.90;1749912;82;21046;-44
2022/07/20 06:00:29;;;;;;;5.70;3.10;;;;;;;20.11;68.40;99685.00;1749861;82;21148;-44
2022/07/20 06:02:56;;;;;;;7.50;3.83;;;;;;;20.17;68.02;99686.69;1749902;82;20979;-44
2022/07/20 06:05:23;;;;;;;3.85;3.50;;;;;;;20.20;68.27;99686.63;1749561;82;21553;-44
2022/07/20 06:07:56;;;;;;;6.30;3.47;;;;;;;20.25;67.96;99679.28;1749938;82;20975;-44
2022/07/20 06:10:24;;;;;;;3.98;3.58;;;;;;;20.31;68.30;99688.66;1721521;82;21312;-43
2022/07/20 06:12:55;;;;;;;14.85;5.20;;;;;;;20.38;68.42;99677.52;1749836;82;21018;-44
2022/07/20 06:15:25;;;;;;;17.52;4.97;;;;;;;20.50;68.86;99672.63;1749594;82;20986;-44
2022/07/20 06:17:54;;;;;;;14.33;5.10;;;;;;;20.58;68.36;99663.04;1750142;82;20979;-43
2022/07/20 06:20:22;;;;;;;6.45;3.90;;;;;;;20.69;67.88;99669.16;1749765;82;21254;-44
2022/07/20 06:22:49;;;;;;;4.78;3.75;;;;;;;20.76;67.13;99666.29;1750169;82;21030;-44
2022/07/20 06:25:17;;;;;;;5.10;3.83;;;;;;;20.84;67.29;99663.58;1749773;82;21229;-44
2022/07/20 06:27:46;;;;;;;5.03;3.65;;;;;;;20.93;66.67;99661.64;1750073;82;21046;-44
2022/07/20 06:30:13;;;;;;;4.67;3.60;;;;;;;20.99;66.06;99661.34;1749829;82;21086;-44
2022/07/20 06:32:40;;;;;;;5.12;3.83;;;;;;;21.06;65.18;99669.47;1750217;82;21003;-43
2022/07/20 06:35:07;;;;;;;4.90;3.62;;;;;;;21.10;65.53;99672.95;1749892;82;21921;-44
2022/07/20 06:37:36;;;;;;;5.83;3.92;;;;;;;21.17;64.91;99666.72;1749853;82;21142;-44
2022/07/20 06:40:05;;;;;;;6.17;3.85;;;;;;;21.27;65.61;99671.08;1717645;83;21078;-44
2022/07/20 06:42:32;;;;;;;5.20;3.87;;;;;;;21.37;64.65;99667.33;1721829;83;21002;-44
2022/07/20 06:44:59;;;;;;;6.37;4.30;;;;;;;21.45;65.32;99661.83;1721601;83;21493;-44
2022/07/20 06:47:26;;;;;;;5.08;4.05;;;;;;;21.54;65.04;99662.06;1721319;83;21030;-44
2022/07/20 06:49:54;;;;;;;4.92;3.80;;;;;;;21.62;63.12;99655.97;1721665;83;21760;-44
2022/07/20 06:52:21;;;;;;;6.05;3.90;;;;;;;21.68;63.21;99654.27;1721455;83;20973;-44
2022/07/20 06:54:48;;;;;;;5.17;3.95;;;;;;;21.76;62.74;99647.98;1721608;83;21029;-44
2022/07/20 06:57:15;;;;;;;6.53;4.03;;;;;;;21.84;62.88;99647.98;1721304;83;21606;-43
2022/07/20 06:59:42;;;;;;;4.90;4.40;;;;;;;21.91;63.20;99649.22;1686734;85;21044;-43
2022/07/20 07:02:09;;;;;;;5.20;4.25;;;;;;;21.98;63.44;99646.31;1721622;83;21221;-43
2022/07/20 07:04:36;;;;;;;5.67;4.17;;;;;;;22.04;62.82;99640.46;1721544;83;21769;-44
2022/07/20 07:07:03;;;;;;;6.85;4.30;;;;;;;22.10;62.39;99643.48;1686702;85;21048;-44
2022/07/20 07:09:30;;;;;;;6.92;4.25;;;;;;;22.15;61.05;99644.95;1721424;82;21052;-43
2022/07/20 07:11:57;;;;;;;5.90;4.15;;;;;;;22.21;61.53;99643.24;1721598;83;21023;-44
2022/07/20 07:14:26;;;;;;;4.85;4.00;;;;;;;22.27;61.59;99627.72;1721482;83;21269;-44
2022/07/20 07:16:54;;;;;;;11.93;4.87;;;;;;;22.36;62.22;99636.17;1721618;83;21531;-44
2022/07/20 07:19:22;;;;;;;5.62;4.35;;;;;;;22.45;60.04;99630.81;1721819;83;20988;-44
2022/07/20 07:21:48;;;;;;;5.95;4.35;;;;;;;22.50;60.46;99625.54;1721383;83;21577;-44
2022/07/20 07:24:15;;;;;;;6.00;4.20;;;;;;;22.58;60.32;99613.69;1686604;85;21044;-44
2022/07/20 07:26:42;;;;;;;6.00;4.10;;;;;;;22.71;59.12;99618.70;1721801;83;21089;-44
2022/07/20 07:29:10;;;;;;;5.45;3.90;;;;;;;22.82;58.30;99612.29;1721421;83;21546;-44
2022/07/20 07:31:37;;;;;;;5.12;3.98;;;;;;;22.91;58.37;99605.52;1686731;85;21032;-44
2022/07/20 07:34:05;;;;;;;4.20;3.80;;;;;;;23.03;58.48;99605.41;1721535;82;20942;-44
2022/07/20 07:36:33;;;;;;;6.72;3.87;;;;;;;23.09;56.80;99602.88;1681345;85;21076;-44
2022/07/20 07:39:00;;;;;;;5.12;4.15;;;;;;;23.15;57.07;99596.36;1713687;83;23123;-44
2022/07/20 07:41:28;;;;;;;6.12;4.17;;;;;;;23.21;57.70;99592.45;1713611;83;21524;-44
2022/07/20 07:43:55;;;;;;;4.47;3.60;;;;;;;23.26;56.87;99586.38;1713822;82;20974;-44
2022/07/20 07:46:23;;;;;;;5.42;3.70;;;;;;;23.30;56.61;99587.04;1713750;82;21089;-44
2022/07/20 07:48:50;;;;;;;4.03;3.55;;;;;;;23.29;56.92;99579.34;1713955;83;21049;-44
2022/07/20 07:51:17;;;;;;;5.87;3.50;;;;;;;23.33;56.43;99577.88;1713806;82;21320;-44
2022/07/20 07:53:44;;;;;;;5.30;3.90;;;;;;;23.35;55.56;99574.83;1658663;85;21507;-44
2022/07/20 07:56:12;;;;;;;5.12;3.90;;;;;;;23.35;55.59;99572.66;1679168;85;20973;-44
2022/07/20 07:58:40;;;;;;;4.33;3.52;;;;;;;23.39;56.04;99569.95;1679193;85;20929;-44
2022/07/20 08:01:07;;;;;;;4.80;3.50;;;;;;;23.51;56.47;99569.84;1679325;85;21017;-44
2022/07/20 08:03:35;;;;;;;6.35;3.70;;;;;;;23.58;56.34;99568.23;1679233;85;21518;-44
2022/07/20 08:06:03;;;;;;;5.40;3.52;;;;;;;23.71;56.39;99572.40;1679310;85;20964;-44
2022/07/20 08:08:31;;;;;;;4.40;3.40;;;;;;;23.83;55.86;99570.22;1679339;85;21092;-44
2022/07/20 08:10:58;;;;;;;4.50;3.70;;;;;;;23.95;55.94;99565.30;1679213;85;20988;-44
2022/07/20 08:13:26;;;;;;;5.55;4.03;;;;;;;24.04;55.28;99564.61;1679069;85;21515;-44
2022/07/20 08:15:53;;;;;;;4.83;3.87;;;;;;;24.10;54.43;99561.45;1679122;85;21948;-44
2022/07/20 08:18:20;;;;;;;5.55;3.55;;;;;;;24.10;53.95;99558.69;1679176;85;21029;-44
2022/07/20 08:20:47;;;;;;;6.35;3.80;;;;;;;24.11;54.10;99556.05;1679251;85;21052;-44
2022/07/20 08:23:14;;;;;;;5.42;3.85;;;;;;;24.11;53.96;99555.45;1678952;85;21575;-43
2022/07/20 08:25:41;;;;;;;7.70;4.10;;;;;;;24.19;54.96;99548.50;1679250;85;21012;-44
2022/07/20 08:28:12;;;;;;;4.87;3.62;;;;;;;24.32;54.63;99538.76;1679299;85;21127;-44
2022/07/20 08:30:41;;;;;;;5.75;3.50;;;;;;;24.43;54.31;99540.56;1678920;85;21040;-44
2022/07/20 08:33:08;;;;;;;4.50;3.47;;;;;;;24.51;52.87;99536.30;1679490;85;21519;-44
2022/07/20 08:35:36;;;;;;;4.25;3.62;;;;;;;24.58;51.95;99538.06;1678956;85;21596;-44
2022/07/20 08:38:04;;;;;;;7.60;3.90;;;;;;;24.67;53.02;99536.14;1679268;85;21017;-44
2022/07/20 08:40:32;;;;;;;4.87;3.47;;;;;;;24.82;52.72;99539.78;1679169;85;21864;-44
2022/07/20 08:42:59;;;;;;;4.08;3.27;;;;;;;24.96;51.14;99524.81;1679503;85;20937;-44
2022/07/20 08:45:26;;;;;;;5.62;3.58;;;;;;;25.05;51.32;99534.57;1679190;85;21024;-44
2022/07/20 08:47:53;;;;;;;6.12;3.72;;;;;;;25.13;51.99;99528.13;1679116;85;21634;-44
2022/07/20 08:50:28;;;;;;;3.98;3.37;;;;;;;25.12;50.30;99502.25;1679233;85;21530;-44
2022/07/20 08:52:56;;;;;;;5.33;3.62;;;;;;;25.10;51.09;99502.08;1679244;85;21551;-44
2022/07/20 08:55:26;;;;;;;6.15;3.90;;;;;;;25.06;51.43;99509.00;1679021;85;21559;-44
2022/07/20 08:57:53;;;;;;;4.67;3.55;;;;;;;25.05;49.63;99502.67;1679678;85;21027;-44
2022/07/20 09:00:20;;;;;;;3.90;3.42;;;;;;;25.12;50.34;99491.16;1679269;85;21000;-44
2022/07/20 09:03:02;;;;;;;6.70;3.92;;;;;;;25.17;50.59;99494.11;1679500;85;21028;-44
2022/07/20 09:05:32;;;;;;;5.62;3.45;;;;;;;25.19;48.87;99473.60;1679294;85;21237;-44
2022/07/20 09:08:00;;;;;;;4.90;3.52;;;;;;;25.21;49.19;99467.61;1679733;85;20992;-44
2022/07/20 09:10:37;;;;;;;4.33;3.47;;;;;;;25.26;49.24;99469.79;1679186;85;21032;-44
2022/07/20 09:13:17;;;;;;;4.78;3.35;;;;;;;25.27;48.03;99460.98;1713782;83;20989;-44
2022/07/20 09:15:52;;;;;;;5.35;3.55;;;;;;;25.31;48.54;99446.99;1713955;83;21049;-44
2022/07/20 09:18:31;;;;;;;6.37;3.50;;;;;;;25.36;49.36;99447.17;1713870;83;21225;-44
2022/07/20 09:21:04;;;;;;;6.30;3.17;;;;;;;25.44;50.05;99433.16;1713997;83;21025;-44
2022/07/20 09:23:43;;;;;;;5.55;3.75;;;;;;;25.55;49.50;99426.42;1714019;82;21547;-44
2022/07/20 09:26:14;;;;;;;4.83;3.45;;;;;;;25.57;47.81;99441.99;1711584;82;21023;-44
2022/07/20 09:28:46;;;;;;;4.95;3.60;;;;;;;25.56;47.98;99448.19;1713900;82;21478;-44
2022/07/20 09:31:33;;;;;;;6.87;4.25;;;;;;;25.59;47.07;99438.16;1713920;83;21199;-44
2022/07/20 09:34:14;;;;;;;5.33;3.83;;;;;;;25.63;47.77;99435.39;1713988;82;21247;-44
2022/07/20 09:36:45;;;;;;;6.58;3.45;;;;;;;25.64;47.57;99420.89;1713668;82;20957;-44
2022/07/20 09:39:17;;;;;;;4.80;3.30;;;;;;;25.69;47.75;99423.06;1714054;83;21050;-44
2022/07/20 09:42:01;;;;;;;4.72;3.45;;;;;;;25.81;47.47;99417.36;1713900;83;21552;-44
2022/07/20 09:44:29;;;;;;;7.25;3.20;;;;;;;25.92;47.39;99403.80;1713419;82;21353;-44
2022/07/20 09:46:56;;;;;;;4.72;3.85;;;;;;;26.07;48.85;99401.17;1679207;85;21048;-44
2022/07/20 09:49:34;;;;;;;6.15;3.45;;;;;;;26.16;46.27;99397.00;1679375;85;21017;-44
2022/07/20 09:52:03;;;;;;;9.43;3.72;;;;;;;26.22;46.42;99395.80;1679375;85;21016;-44
2022/07/20 09:54:30;;;;;;;3.58;3.12;;;;;;;26.21;46.58;99390.85;1679555;85;21519;-44
2022/07/20 09:56:57;;;;;;;4.62;3.35;;;;;;;26.17;46.37;99380.48;1679324;85;21130;-44
2022/07/20 09:59:25;;;;;;;6.80;3.33;;;;;;;26.20;47.11;99380.16;1679111;85;21052;-44
2022/07/20 10:01:54;;;;;;;5.53;3.80;;;;;;;26.25;46.62;99374.78;1679325;85;20976;-44
2022/07/20 10:04:23;;;;;;;5.05;3.40;;;;;;;26.29;45.42;99367.05;1679454;85;21531;-44
2022/07/20 10:06:52;;;;;;;4.53;3.30;;;;;;;26.32;46.19;99359.80;1679337;85;21045;-44
2022/07/20 10:09:19;;;;;;;6.97;3.33;;;;;;;26.41;46.64;99357.62;1679375;85;21740;-44
2022/07/20 10:11:48;;;;;;;8.80;3.50;;;;;;;26.55;47.04;99354.18;1679359;85;20933;-44
2022/07/20 10:14:20;;;;;;;6.33;3.35;;;;;;;26.68;46.29;99345.02;1679197;85;21008;-44
2022/07/20 10:16:50;;;;;;;5.47;3.70;;;;;;;26.78;46.05;99343.74;1679264;85;21012;-44
2022/07/20 10:19:18;;;;;;;4.70;2.95;;;;;;;26.86;45.12;99342.21;1679314;85;21040;-44
2022/07/20 10:21:51;;;;;;;4.28;3.45;;;;;;;26.92;45.08;99336.75;1679403;85;21126;-44
2022/07/20 10:24:31;;;;;;;3.98;3.20;;;;;;;26.98;44.93;99324.52;1679210;85;20972;-44
2022/07/20 10:27:20;;;;;;;4.08;3.37;;;;;;;27.12;45.91;99320.27;1679680;85;20977;-44
2022/07/20 10:29:52;;;;;;;4.37;3.55;;;;;;;27.36;44.87;99316.09;1679395;85;21088;-44
2022/07/20 10:32:28;;;;;;;7.97;3.62;;;;;;;27.36;42.60;99311.91;1679479;85;21044;-44
2022/07/20 10:34:59;;;;;;;5.33;3.40;;;;;;;27.23;43.08;99307.98;1679463;85;22018;-44
2022/07/20 10:37:38;;;;;;;7.42;3.50;;;;;;;27.04;43.26;99303.78;1678952;85;21025;-44
2022/07/20 10:40:14;;;;;;;3.83;3.35;;;;;;;26.88;43.54;99295.20;1679347;85;20976;-44
2022/07/20 10:42:50;;;;;;;5.08;3.60;;;;;;;26.72;43.71;99294.93;1679349;85;21643;-44
2022/07/20 10:45:23;;;;;;;23.62;4.45;;;;;;;26.65;44.02;99283.39;1679516;85;20993;-44
2022/07/20 10:47:55;;;;;;;5.28;3.87;;;;;;;26.62;44.88;99285.73;1679535;85;21101;-44
2022/07/20 10:50:35;;;;;;;5.75;3.55;;;;;;;26.68;44.16;99278.27;1713931;83;21061;-44
2022/07/20 10:53:20;;;;;;;6.12;3.67;;;;;;;26.81;44.87;99271.27;1714115;83;20961;-44
2022/07/20 10:55:53;;;;;;;4.12;3.30;;;;;;;27.07;44.69;99265.25;1713771;83;21610;-44
2022/07/20 10:58:23;;;;;;;4.33;3.42;;;;;;;27.33;44.22;99270.50;1713728;83;21092;-44
2022/07/20 11:00:57;;;;;;;4.72;3.67;;;;;;;27.51;44.09;99261.25;1713957;83;21170;-44
2022/07/20 11:03:29;;;;;;;4.47;3.55;;;;;;;27.61;43.56;99262.09;1714011;83;20969;-44
2022/07/20 11:06:07;;;;;;;5.33;3.85;;;;;;;27.74;43.46;99250.67;1713955;82;20929;-44
2022/07/20 11:08:35;;;;;;;5.08;3.80;;;;;;;27.79;42.58;99247.87;1713941;82;21092;-44
2022/07/20 11:11:03;;;;;;;5.85;3.67;;;;;;;27.79;42.83;99254.83;1713968;83;21555;-44
2022/07/20 11:13:30;;;;;;;5.67;4.17;;;;;;;27.75;42.30;99243.86;1713805;82;21225;-44
2022/07/20 11:16:00;;;;;;;5.75;4.03;;;;;;;27.74;42.99;99230.42;1713769;83;20989;-44
2022/07/20 11:18:30;;;;;;;6.17;3.85;;;;;;;27.76;41.73;99224.51;1679303;85;21057;-44
2022/07/20 11:21:02;;;;;;;6.40;3.70;;;;;;;27.71;42.05;99225.80;1679354;85;20988;-44
2022/07/20 11:23:45;;;;;;;5.03;3.80;;;;;;;27.75;42.05;99227.77;1679063;85;21072;-44
2022/07/20 11:26:15;;;;;;;6.85;3.95;;;;;;;27.80;42.99;99225.08;1679139;85;21205;-44
2022/07/20 11:28:50;;;;;;;4.92;4.05;;;;;;;27.85;42.82;99214.66;1679475;85;21031;-44
2022/07/20 11:31:22;;;;;;;5.70;4.10;;;;;;;27.85;43.12;99204.91;1679252;85;20985;-44
2022/07/20 11:33:51;;;;;;;5.55;3.90;;;;;;;27.75;43.32;99201.30;1679355;85;21024;-44
2022/07/20 11:36:28;;;;;;;4.95;3.70;;;;;;;27.67;42.97;99177.25;1679993;85;21052;-45
2022/07/20 11:39:02;;;;;;;6.35;3.87;;;;;;;27.58;42.45;99171.77;1686576;85;21201;-44
2022/07/20 11:41:38;;;;;;;4.83;3.60;;;;;;;27.59;42.33;99181.67;1686634;85;20976;-44
2022/07/20 11:44:10;;;;;;;4.45;3.52;;;;;;;27.63;42.17;99168.32;1686723;85;21032;-44